sensor_id;sensor_type;location;lat;lon;timestamp;pressure;altitude;pressure_sealevel;temperature;humidity
6464;BME280;3265;42.694;23.282;2023-02-23T00:01:48;94491.69;;;8.17;73.49
6464;BME280;3265;42.694;23.282;2023-02-23T00:04:15;94498.06;;;8.14;73.66
6464;BME280;3265;42.694;23.282;2023-02-23T00:06:43;94498.31;;;8.06;74.61
6464;BME280;3265;42.694;23.282;2023-02-23T00:09:10;94496.16;;;7.96;74.72
6464;BME280;3265;42.694;23.282;2023-02-23T00:11:48;94511.69;;;7.96;75.14
6464;BME280;3265;42.694;23.282;2023-02-23T00:14:15;94508.09;;;7.97;74.42
6464;BME280;3265;42.694;23.282;2023-02-23T00:16:42;94506.56;;;7.90;75.66
6464;BME280;3265;42.694;23.282;2023-02-23T00:19:11;94505.94;;;7.94;75.27
6464;BME280;3265;42.694;23.282;2023-02-23T00:21:39;94503.75;;;7.91;75.46
6464;BME280;3265;42.694;23.282;2023-02-23T00:24:08;94510.94;;;7.89;75.92
6464;BME280;3265;42.694;23.282;2023-02-23T00:26:36;94505.19;;;7.81;76.60
6464;BME280;3265;42.694;23.282;2023-02-23T00:29:07;94513.34;;;7.84;75.82
6464;BME280;3265;42.694;23.282;2023-02-23T00:31:34;94502.22;;;7.71;76.20
6464;BME280;3265;42.694;23.282;2023-02-23T00:34:04;94507.03;;;7.67;76.50
6464;BME280;3265;42.694;23.282;2023-02-23T00:36:33;94511.00;;;7.70;75.95
6464;BME280;3265;42.694;23.282;2023-02-23T00:39:02;94502.91;;;7.53;76.88
6464;BME280;3265;42.694;23.282;2023-02-23T00:41:42;94515.59;;;7.55;77.27
6464;BME280;3265;42.694;23.282;2023-02-23T00:44:10;94492.97;;;7.37;77.66
6464;BME280;3265;42.694;23.282;2023-02-23T00:46:40;94492.97;;;7.37;77.70
6464;BME280;3265;42.694;23.282;2023-02-23T00:49:08;94505.44;;;7.60;77.13
6464;BME280;3265;42.694;23.282;2023-02-23T00:51:35;94505.84;;;7.57;77.30
6464;BME280;3265;42.694;23.282;2023-02-23T00:54:04;94506.66;;;7.57;77.57
6464;BME280;3265;42.694;23.282;2023-02-23T00:56:30;94507.28;;;7.53;77.13
6464;BME280;3265;42.694;23.282;2023-02-23T00:58:57;94502.09;;;7.53;77.16
6464;BME280;3265;42.694;23.282;2023-02-23T01:01:25;94500.53;;;7.38;77.50
6464;BME280;3265;42.694;23.282;2023-02-23T01:03:52;94492.41;;;7.28;77.74
6464;BME280;3265;42.694;23.282;2023-02-23T01:06:19;94498.94;;;7.24;78.39
6464;BME280;3265;42.694;23.282;2023-02-23T01:08:48;94510.09;;;7.31;78.49
6464;BME280;3265;42.694;23.282;2023-02-23T01:11:17;94501.34;;;7.19;78.94
6464;BME280;3265;42.694;23.282;2023-02-23T01:13:46;94512.09;;;7.29;79.18
6464;BME280;3265;42.694;23.282;2023-02-23T01:16:16;94495.59;;;7.24;78.85
6464;BME280;3265;42.694;23.282;2023-02-23T01:18:45;94502.72;;;7.28;79.57
6464;BME280;3265;42.694;23.282;2023-02-23T01:21:14;94494.00;;;7.23;79.42
6464;BME280;3265;42.694;23.282;2023-02-23T01:23:41;94469.56;;;6.99;79.99
6464;BME280;3265;42.694;23.282;2023-02-23T01:26:14;94483.28;;;7.06;80.85
6464;BME280;3265;42.694;23.282;2023-02-23T01:28:41;94466.19;;;6.99;81.41
6464;BME280;3265;42.694;23.282;2023-02-23T01:31:08;94486.47;;;7.15;81.56
6464;BME280;3265;42.694;23.282;2023-02-23T01:33:34;94496.78;;;7.21;81.65
6464;BME280;3265;42.694;23.282;2023-02-23T01:36:03;94481.28;;;7.08;81.86
6464;BME280;3265;42.694;23.282;2023-02-23T01:38:30;94490.03;;;7.14;82.12
6464;BME280;3265;42.694;23.282;2023-02-23T01:40:57;94498.97;;;7.18;82.53
6464;BME280;3265;42.694;23.282;2023-02-23T01:43:24;94491.44;;;7.10;82.89
6464;BME280;3265;42.694;23.282;2023-02-23T01:45:52;94483.28;;;7.06;83.71
6464;BME280;3265;42.694;23.282;2023-02-23T01:48:22;94495.41;;;7.12;83.55
6464;BME280;3265;42.694;23.282;2023-02-23T01:50:53;94495.00;;;7.09;82.37
6464;BME280;3265;42.694;23.282;2023-02-23T01:53:24;94498.19;;;6.98;82.92
6464;BME280;3265;42.694;23.282;2023-02-23T01:55:54;94494.03;;;7.03;82.70
6464;BME280;3265;42.694;23.282;2023-02-23T01:58:23;94491.44;;;7.03;83.09
6464;BME280;3265;42.694;23.282;2023-02-23T02:00:54;94491.03;;;7.00;82.80
6464;BME280;3265;42.694;23.282;2023-02-23T02:03:27;94487.06;;;6.97;83.23
6464;BME280;3265;42.694;23.282;2023-02-23T02:05:59;94489.84;;;6.96;83.83
6464;BME280;3265;42.694;23.282;2023-02-23T02:08:29;94491.03;;;6.93;83.57
6464;BME280;3265;42.694;23.282;2023-02-23T02:10:57;94474.34;;;6.82;83.17
6464;BME280;3265;42.694;23.282;2023-02-23T02:13:26;94464.41;;;6.73;84.15
6464;BME280;3265;42.694;23.282;2023-02-23T02:16:08;94483.28;;;6.93;83.73
6464;BME280;3265;42.694;23.282;2023-02-23T02:18:49;94478.13;;;6.93;84.24
6464;BME280;3265;42.694;23.282;2023-02-23T02:21:35;94483.91;;;6.95;84.18
6464;BME280;3265;42.694;23.282;2023-02-23T02:24:54;94485.66;;;6.81;84.97
6464;BME280;3265;42.694;23.282;2023-02-23T02:27:38;94490.22;;;6.73;85.09
6464;BME280;3265;42.694;23.282;2023-02-23T02:30:47;94469.78;;;6.65;85.04
6464;BME280;3265;42.694;23.282;2023-02-23T02:33:55;94486.06;;;6.78;85.47
6464;BME280;3265;42.694;23.282;2023-02-23T02:40:03;94488.84;;;6.77;85.02
6464;BME280;3265;42.694;23.282;2023-02-23T02:42:49;94493.22;;;6.70;86.49
6464;BME280;3265;42.694;23.282;2023-02-23T02:45:25;94477.13;;;6.68;86.55
6464;BME280;3265;42.694;23.282;2023-02-23T02:47:58;94490.22;;;6.73;86.03
6464;BME280;3265;42.694;23.282;2023-02-23T02:50:37;94491.03;;;6.80;85.65
6464;BME280;3265;42.694;23.282;2023-02-23T02:53:09;94490.06;;;6.81;85.37
6464;BME280;3265;42.694;23.282;2023-02-23T02:55:39;94488.06;;;6.83;84.30
6464;BME280;3265;42.694;23.282;2023-02-23T02:58:09;94484.09;;;6.80;84.88
6464;BME280;3265;42.694;23.282;2023-02-23T03:00:38;94481.09;;;6.70;85.04
6464;BME280;3265;42.694;23.282;2023-02-23T03:03:30;94469.78;;;6.65;84.71
6464;BME280;3265;42.694;23.282;2023-02-23T03:06:16;94480.53;;;6.75;84.74
6464;BME280;3265;42.694;23.282;2023-02-23T03:09:07;94492.63;;;6.74;84.13
6464;BME280;3265;42.694;23.282;2023-02-23T03:12:03;94452.47;;;6.52;83.87
6464;BME280;3265;42.694;23.282;2023-02-23T03:14:57;94485.88;;;6.73;83.73
6464;BME280;3265;42.694;23.282;2023-02-23T03:17:46;94489.25;;;6.67;84.33
6464;BME280;3265;42.694;23.282;2023-02-23T03:20:39;94491.84;;;6.61;84.22
6464;BME280;3265;42.694;23.282;2023-02-23T03:23:29;94492.81;;;6.60;84.18
6464;BME280;3265;42.694;23.282;2023-02-23T03:26:22;94497.19;;;6.59;84.35
6464;BME280;3265;42.694;23.282;2023-02-23T03:29:16;94498.78;;;6.54;84.39
6464;BME280;3265;42.694;23.282;2023-02-23T03:32:06;94503.72;;;6.55;84.58
6464;BME280;3265;42.694;23.282;2023-02-23T03:34:55;94498.94;;;6.52;84.71
6464;BME280;3265;42.694;23.282;2023-02-23T03:37:47;94506.31;;;6.49;84.47
6464;BME280;3265;42.694;23.282;2023-02-23T03:40:38;94507.69;;;6.45;84.08
6464;BME280;3265;42.694;23.282;2023-02-23T03:43:26;94504.88;;;6.33;85.04
6464;BME280;3265;42.694;23.282;2023-02-23T03:46:15;94510.63;;;6.28;85.06
6464;BME280;3265;42.694;23.282;2023-02-23T03:49:04;94507.81;;;6.10;86.25
6464;BME280;3265;42.694;23.282;2023-02-23T03:51:54;94514.97;;;6.21;86.18
6464;BME280;3265;42.694;23.282;2023-02-23T03:54:45;94516.75;;;6.21;85.96
6464;BME280;3265;42.694;23.282;2023-02-23T03:57:33;94520.13;;;6.21;86.89
6464;BME280;3265;42.694;23.282;2023-02-23T04:00:25;94523.09;;;6.18;87.05
6464;BME280;3265;42.694;23.282;2023-02-23T04:03:15;94527.88;;;6.21;86.96
6464;BME280;3265;42.694;23.282;2023-02-23T04:06:00;94524.28;;;6.16;87.47
6464;BME280;3265;42.694;23.282;2023-02-23T04:08:47;94523.28;;;6.10;86.49
6464;BME280;3265;42.694;23.282;2023-02-23T04:11:39;94519.47;;;6.00;87.87
6464;BME280;3265;42.694;23.282;2023-02-23T04:14:28;94522.28;;;6.05;86.83
6464;BME280;3265;42.694;23.282;2023-02-23T04:16:56;94519.66;;;5.98;87.82
6464;BME280;3265;42.694;23.282;2023-02-23T04:19:26;94516.91;;;6.00;87.93
6464;BME280;3265;42.694;23.282;2023-02-23T04:21:54;94503.38;;;5.98;87.23
6464;BME280;3265;42.694;23.282;2023-02-23T04:24:20;94509.72;;;5.95;87.65
6464;BME280;3265;42.694;23.282;2023-02-23T04:26:47;94499.41;;;5.89;88.82
6464;BME280;3265;42.694;23.282;2023-02-23T04:29:14;94505.19;;;5.97;89.62
6464;BME280;3265;42.694;23.282;2023-02-23T04:31:41;94506.34;;;5.95;90.47
6464;BME280;3265;42.694;23.282;2023-02-23T04:34:08;94476.09;;;5.76;91.03
6464;BME280;3265;42.694;23.282;2023-02-23T04:36:37;94472.16;;;5.80;89.70
6464;BME280;3265;42.694;23.282;2023-02-23T04:39:05;94490.59;;;5.83;88.61
6464;BME280;3265;42.694;23.282;2023-02-23T04:41:31;94514.13;;;6.01;88.52
6464;BME280;3265;42.694;23.282;2023-02-23T04:43:58;94506.16;;;5.96;88.29
6464;BME280;3265;42.694;23.282;2023-02-23T04:46:25;94509.72;;;5.95;88.80
6464;BME280;3265;42.694;23.282;2023-02-23T04:48:52;94513.53;;;5.99;88.05
6464;BME280;3265;42.694;23.282;2023-02-23T04:51:18;94498.72;;;5.80;88.32
6464;BME280;3265;42.694;23.282;2023-02-23T05:00:38;94515.19;;;5.79;87.71
6464;BME280;3265;42.694;23.282;2023-02-23T05:03:07;94445.81;;;5.37;87.31
6464;BME280;3265;42.694;23.282;2023-02-23T05:05:38;94465.69;;;5.49;87.40
6464;BME280;3265;42.694;23.282;2023-02-23T05:08:08;94444.00;;;5.31;87.39
6464;BME280;3265;42.694;23.282;2023-02-23T05:24:18;94522.19;;;5.51;89.70
6464;BME280;3265;42.694;23.282;2023-02-23T05:30:32;94528.50;;;5.48;89.61
6464;BME280;3265;42.694;23.282;2023-02-23T05:33:28;94499.72;;;5.38;89.41
6464;BME280;3265;42.694;23.282;2023-02-23T05:36:14;94468.59;;;5.05;89.98
6464;BME280;3265;42.694;23.282;2023-02-23T05:38:53;94497.84;;;5.26;90.07
6464;BME280;3265;42.694;23.282;2023-02-23T05:41:45;94469.19;;;5.01;91.06
6464;BME280;3265;42.694;23.282;2023-02-23T05:44:17;94541.53;;;5.40;90.39
6464;BME280;3265;42.694;23.282;2023-02-23T05:47:27;94542.34;;;5.41;91.23
6464;BME280;3265;42.694;23.282;2023-02-23T05:49:55;94547.72;;;5.46;91.25
6464;BME280;3265;42.694;23.282;2023-02-23T05:52:22;94509.47;;;5.15;91.07
6464;BME280;3265;42.694;23.282;2023-02-23T05:54:49;94552.50;;;5.49;90.83
6464;BME280;3265;42.694;23.282;2023-02-23T05:57:16;94558.69;;;5.54;90.66
6464;BME280;3265;42.694;23.282;2023-02-23T05:59:42;94559.44;;;5.48;91.41
6464;BME280;3265;42.694;23.282;2023-02-23T06:02:10;94561.63;;;5.51;91.52
6464;BME280;3265;42.694;23.282;2023-02-23T06:04:37;94550.13;;;5.47;91.43
6464;BME280;3265;42.694;23.282;2023-02-23T06:07:05;94571.81;;;5.66;90.85
6464;BME280;3265;42.694;23.282;2023-02-23T06:09:32;94568.88;;;5.69;90.95
6464;BME280;3265;42.694;23.282;2023-02-23T06:11:59;94568.31;;;5.73;91.05
6464;BME280;3265;42.694;23.282;2023-02-23T06:14:26;94564.97;;;5.80;91.10
6464;BME280;3265;42.694;23.282;2023-02-23T06:16:53;94578.09;;;5.85;90.73
6464;BME280;3265;42.694;23.282;2023-02-23T06:19:20;94569.63;;;5.91;90.38
6464;BME280;3265;42.694;23.282;2023-02-23T06:21:47;94577.97;;;5.93;91.12
6464;BME280;3265;42.694;23.282;2023-02-23T06:24:15;94590.06;;;5.92;90.82
6464;BME280;3265;42.694;23.282;2023-02-23T06:26:42;94579.94;;;5.91;90.90
6464;BME280;3265;42.694;23.282;2023-02-23T06:29:09;94579.97;;;5.97;90.35
6464;BME280;3265;42.694;23.282;2023-02-23T06:31:36;94584.78;;;6.07;90.15
6464;BME280;3265;42.694;23.282;2023-02-23T06:34:03;94588.38;;;6.12;89.52
6464;BME280;3265;42.694;23.282;2023-02-23T06:36:30;94592.16;;;6.16;90.17
6464;BME280;3265;42.694;23.282;2023-02-23T06:38:58;94580.03;;;6.10;89.73
6464;BME280;3265;42.694;23.282;2023-02-23T06:41:26;94600.72;;;6.23;89.91
6464;BME280;3265;42.694;23.282;2023-02-23T06:43:53;94588.41;;;6.19;90.30
6464;BME280;3265;42.694;23.282;2023-02-23T06:46:20;94589.22;;;6.26;90.40
6464;BME280;3265;42.694;23.282;2023-02-23T06:48:47;94593.41;;;6.34;89.75
6464;BME280;3265;42.694;23.282;2023-02-23T06:51:13;94592.25;;;6.43;89.55
6464;BME280;3265;42.694;23.282;2023-02-23T06:53:40;94590.09;;;6.53;88.57
6464;BME280;3265;42.694;23.282;2023-02-23T06:56:07;94597.28;;;6.64;88.13
6464;BME280;3265;42.694;23.282;2023-02-23T06:58:35;94588.53;;;6.65;88.19
6464;BME280;3265;42.694;23.282;2023-02-23T07:01:03;94590.75;;;6.68;87.50
6464;BME280;3265;42.694;23.282;2023-02-23T07:03:30;94596.72;;;6.75;87.52
6464;BME280;3265;42.694;23.282;2023-02-23T07:05:57;94589.97;;;6.80;87.48
6464;BME280;3265;42.694;23.282;2023-02-23T07:08:24;94586.63;;;6.87;87.58
6464;BME280;3265;42.694;23.282;2023-02-23T07:10:50;94583.44;;;6.78;88.20
6464;BME280;3265;42.694;23.282;2023-02-23T07:13:17;94594.16;;;6.95;87.21
6464;BME280;3265;42.694;23.282;2023-02-23T07:15:46;94593.97;;;7.03;87.07
6464;BME280;3265;42.694;23.282;2023-02-23T07:18:13;94599.16;;;7.09;86.73
6464;BME280;3265;42.694;23.282;2023-02-23T07:20:40;94598.75;;;7.19;85.97
6464;BME280;3265;42.694;23.282;2023-02-23T07:23:07;94590.19;;;7.25;86.05
6464;BME280;3265;42.694;23.282;2023-02-23T07:25:34;94593.41;;;7.27;86.19
6464;BME280;3265;42.694;23.282;2023-02-23T07:28:01;94591.00;;;7.32;86.21
6464;BME280;3265;42.694;23.282;2023-02-23T07:30:28;94581.66;;;7.37;85.36
6464;BME280;3265;42.694;23.282;2023-02-23T07:32:56;94587.41;;;7.46;84.54
6464;BME280;3265;42.694;23.282;2023-02-23T07:35:23;94561.19;;;7.29;84.19
6464;BME280;3265;42.694;23.282;2023-02-23T07:37:50;94588.59;;;7.57;84.13
6464;BME280;3265;42.694;23.282;2023-02-23T07:40:18;94585.59;;;7.60;84.39
6464;BME280;3265;42.694;23.282;2023-02-23T07:42:45;94585.38;;;7.68;82.22
6464;BME280;3265;42.694;23.282;2023-02-23T07:45:13;94579.84;;;7.64;82.35
6464;BME280;3265;42.694;23.282;2023-02-23T07:47:41;94587.59;;;7.64;83.11
6464;BME280;3265;42.694;23.282;2023-02-23T07:50:10;94579.63;;;7.72;82.60
6464;BME280;3265;42.694;23.282;2023-02-23T07:52:40;94571.28;;;7.70;82.08
6464;BME280;3265;42.694;23.282;2023-02-23T07:55:08;94580.22;;;7.81;82.70
6464;BME280;3265;42.694;23.282;2023-02-23T07:57:35;94576.41;;;7.83;81.80
6464;BME280;3265;42.694;23.282;2023-02-23T08:00:05;94567.84;;;7.89;81.55
6464;BME280;3265;42.694;23.282;2023-02-23T08:02:32;94575.56;;;8.02;80.86
6464;BME280;3265;42.694;23.282;2023-02-23T08:04:59;94581.94;;;8.00;80.25
6464;BME280;3265;42.694;23.282;2023-02-23T08:07:27;94573.94;;;8.08;80.21
6464;BME280;3265;42.694;23.282;2023-02-23T08:09:54;94566.78;;;8.10;80.64
6464;BME280;3265;42.694;23.282;2023-02-23T08:12:21;94571.53;;;8.20;79.26
6464;BME280;3265;42.694;23.282;2023-02-23T08:14:48;94563.16;;;8.24;79.62
6464;BME280;3265;42.694;23.282;2023-02-23T08:17:14;94578.47;;;8.39;78.62
6464;BME280;3265;42.694;23.282;2023-02-23T08:19:41;94576.44;;;8.47;78.00
6464;BME280;3265;42.694;23.282;2023-02-23T08:22:08;94578.34;;;8.59;76.73
6464;BME280;3265;42.694;23.282;2023-02-23T08:24:37;94566.81;;;8.54;77.07
6464;BME280;3265;42.694;23.282;2023-02-23T08:27:05;94576.31;;;8.67;76.63
6464;BME280;3265;42.694;23.282;2023-02-23T08:29:34;94575.66;;;8.78;76.87
6464;BME280;3265;42.694;23.282;2023-02-23T08:32:05;94574.81;;;8.84;76.51
6464;BME280;3265;42.694;23.282;2023-02-23T08:34:37;94578.38;;;8.90;75.73
6464;BME280;3265;42.694;23.282;2023-02-23T08:37:03;94575.53;;;8.98;75.38
6464;BME280;3265;42.694;23.282;2023-02-23T08:39:30;94584.84;;;9.05;75.00
6464;BME280;3265;42.694;23.282;2023-02-23T08:41:58;94574.81;;;9.16;75.09
6464;BME280;3265;42.694;23.282;2023-02-23T08:44:26;94576.34;;;9.23;73.87
6464;BME280;3265;42.694;23.282;2023-02-23T08:46:52;94570.22;;;9.18;72.45
6464;BME280;3265;42.694;23.282;2023-02-23T08:49:21;94575.34;;;9.24;72.88
6464;BME280;3265;42.694;23.282;2023-02-23T08:51:48;94581.59;;;9.41;72.34
6464;BME280;3265;42.694;23.282;2023-02-23T08:54:15;94574.78;;;9.65;72.06
6464;BME280;3265;42.694;23.282;2023-02-23T08:56:42;94578.31;;;9.95;71.86
6464;BME280;3265;42.694;23.282;2023-02-23T08:59:11;94582.22;;;10.22;72.97
6464;BME280;3265;42.694;23.282;2023-02-23T09:01:38;94579.44;;;10.54;68.77
6464;BME280;3265;42.694;23.282;2023-02-23T09:04:06;94583.72;;;10.78;65.84
6464;BME280;3265;42.694;23.282;2023-02-23T09:06:33;94587.56;;;11.17;65.10
6464;BME280;3265;42.694;23.282;2023-02-23T09:09:01;94583.00;;;11.54;63.45
6464;BME280;3265;42.694;23.282;2023-02-23T09:11:27;94583.16;;;11.82;60.35
6464;BME280;3265;42.694;23.282;2023-02-23T09:13:54;94584.25;;;12.09;59.07
6464;BME280;3265;42.694;23.282;2023-02-23T09:16:22;94581.81;;;12.42;58.33
6464;BME280;3265;42.694;23.282;2023-02-23T09:18:49;94577.44;;;12.71;56.31
6464;BME280;3265;42.694;23.282;2023-02-23T09:21:18;94581.28;;;12.97;55.87
6464;BME280;3265;42.694;23.282;2023-02-23T09:23:46;94581.47;;;13.35;54.60
6464;BME280;3265;42.694;23.282;2023-02-23T09:26:15;94577.50;;;13.66;53.95
6464;BME280;3265;42.694;23.282;2023-02-23T09:28:43;94584.50;;;13.99;51.14
6464;BME280;3265;42.694;23.282;2023-02-23T09:31:12;94583.25;;;14.01;50.27
6464;BME280;3265;42.694;23.282;2023-02-23T09:33:41;94589.53;;;14.22;50.10
6464;BME280;3265;42.694;23.282;2023-02-23T09:36:09;94593.34;;;14.53;49.32
6464;BME280;3265;42.694;23.282;2023-02-23T09:38:37;94592.84;;;14.77;49.19
6464;BME280;3265;42.694;23.282;2023-02-23T09:41:16;94594.31;;;15.17;48.12
6464;BME280;3265;42.694;23.282;2023-02-23T09:43:55;94595.53;;;15.63;45.99
6464;BME280;3265;42.694;23.282;2023-02-23T09:46:30;94597.03;;;15.90;45.64
6464;BME280;3265;42.694;23.282;2023-02-23T09:49:03;94596.63;;;16.09;44.63
6464;BME280;3265;42.694;23.282;2023-02-23T09:51:37;94603.69;;;16.50;43.78
6464;BME280;3265;42.694;23.282;2023-02-23T09:54:08;94605.44;;;16.86;42.84
6464;BME280;3265;42.694;23.282;2023-02-23T09:56:38;94598.69;;;17.26;42.55
6464;BME280;3265;42.694;23.282;2023-02-23T09:59:12;94592.47;;;17.62;40.93
6464;BME280;3265;42.694;23.282;2023-02-23T10:01:50;94597.44;;;17.99;40.39
6464;BME280;3265;42.694;23.282;2023-02-23T10:04:23;94593.19;;;18.38;39.43
6464;BME280;3265;42.694;23.282;2023-02-23T10:06:58;94590.38;;;17.94;40.01
6464;BME280;3265;42.694;23.282;2023-02-23T10:09:37;94596.41;;;17.95;38.41
6464;BME280;3265;42.694;23.282;2023-02-23T10:12:11;94600.63;;;17.71;39.34
6464;BME280;3265;42.694;23.282;2023-02-23T10:14:57;94587.69;;;18.09;39.80
6464;BME280;3265;42.694;23.282;2023-02-23T10:17:37;94576.28;;;18.59;37.93
6464;BME280;3265;42.694;23.282;2023-02-23T10:20:15;94586.34;;;19.06;37.98
6464;BME280;3265;42.694;23.282;2023-02-23T10:22:45;94577.41;;;19.46;36.21
6464;BME280;3265;42.694;23.282;2023-02-23T10:25:17;94580.22;;;19.89;35.60
6464;BME280;3265;42.694;23.282;2023-02-23T10:27:48;94576.09;;;20.40;35.03
6464;BME280;3265;42.694;23.282;2023-02-23T10:30:18;94570.50;;;20.65;34.37
6464;BME280;3265;42.694;23.282;2023-02-23T10:32:51;94570.41;;;20.94;33.92
6464;BME280;3265;42.694;23.282;2023-02-23T10:35:22;94574.50;;;21.05;33.52
6464;BME280;3265;42.694;23.282;2023-02-23T10:37:50;94569.16;;;21.10;33.65
6464;BME280;3265;42.694;23.282;2023-02-23T10:40:21;94571.81;;;21.29;33.30
6464;BME280;3265;42.694;23.282;2023-02-23T10:42:49;94571.22;;;21.50;32.70
6464;BME280;3265;42.694;23.282;2023-02-23T10:45:18;94558.97;;;21.73;32.52
6464;BME280;3265;42.694;23.282;2023-02-23T10:47:50;94561.94;;;22.18;31.70
6464;BME280;3265;42.694;23.282;2023-02-23T10:50:18;94563.38;;;22.56;30.77
6464;BME280;3265;42.694;23.282;2023-02-23T10:52:50;94563.53;;;23.00;30.90
6464;BME280;3265;42.694;23.282;2023-02-23T10:55:23;94564.72;;;23.44;30.29
6464;BME280;3265;42.694;23.282;2023-02-23T10:58:01;94555.91;;;23.35;30.09
6464;BME280;3265;42.694;23.282;2023-02-23T11:00:29;94554.91;;;23.66;29.23
6464;BME280;3265;42.694;23.282;2023-02-23T11:02:59;94558.84;;;23.91;29.05
6464;BME280;3265;42.694;23.282;2023-02-23T11:05:43;94554.53;;;24.26;28.98
6464;BME280;3265;42.694;23.282;2023-02-23T11:08:17;94544.81;;;24.61;28.30
6464;BME280;3265;42.694;23.282;2023-02-23T11:11:03;94548.19;;;24.83;28.18
6464;BME280;3265;42.694;23.282;2023-02-23T11:13:34;94541.97;;;25.14;28.11
6464;BME280;3265;42.694;23.282;2023-02-23T11:16:03;94551.25;;;25.33;26.97
6464;BME280;3265;42.694;23.282;2023-02-23T11:18:31;94546.25;;;25.49;27.07
6464;BME280;3265;42.694;23.282;2023-02-23T11:20:58;94550.78;;;25.74;26.94
6464;BME280;3265;42.694;23.282;2023-02-23T11:23:30;94542.81;;;25.83;26.83
6464;BME280;3265;42.694;23.282;2023-02-23T11:26:02;94538.25;;;25.66;26.69
6464;BME280;3265;42.694;23.282;2023-02-23T11:28:31;94542.16;;;25.43;26.95
6464;BME280;3265;42.694;23.282;2023-02-23T11:31:01;94534.03;;;25.39;26.77
6464;BME280;3265;42.694;23.282;2023-02-23T11:33:32;94530.09;;;25.28;27.06
6464;BME280;3265;42.694;23.282;2023-02-23T11:36:14;94521.91;;;24.91;27.63
6464;BME280;3265;42.694;23.282;2023-02-23T11:38:43;94519.81;;;24.22;27.59
6464;BME280;3265;42.694;23.282;2023-02-23T11:41:20;94509.41;;;24.04;28.40
6464;BME280;3265;42.694;23.282;2023-02-23T11:43:48;94513.41;;;24.23;28.45
6464;BME280;3265;42.694;23.282;2023-02-23T11:46:17;94511.25;;;24.34;27.62
6464;BME280;3265;42.694;23.282;2023-02-23T11:48:49;94499.88;;;24.42;27.86
6464;BME280;3265;42.694;23.282;2023-02-23T11:51:26;94510.72;;;24.54;28.06
6464;BME280;3265;42.694;23.282;2023-02-23T11:53:57;94509.47;;;24.60;28.49
6464;BME280;3265;42.694;23.282;2023-02-23T11:56:25;94507.38;;;24.40;27.65
6464;BME280;3265;42.694;23.282;2023-02-23T11:58:54;94500.16;;;24.01;28.10
6464;BME280;3265;42.694;23.282;2023-02-23T12:01:33;94493.34;;;23.87;28.84
6464;BME280;3265;42.694;23.282;2023-02-23T12:04:01;94508.53;;;23.86;28.18
6464;BME280;3265;42.694;23.282;2023-02-23T12:06:30;94499.63;;;23.91;28.73
6464;BME280;3265;42.694;23.282;2023-02-23T12:09:05;94500.66;;;24.03;29.03
6464;BME280;3265;42.694;23.282;2023-02-23T12:11:49;94493.31;;;24.09;28.39
6464;BME280;3265;42.694;23.282;2023-02-23T12:14:25;94495.28;;;24.25;27.66
6464;BME280;3265;42.694;23.282;2023-02-23T12:16:59;94488.22;;;24.12;27.92
6464;BME280;3265;42.694;23.282;2023-02-23T12:19:31;94495.09;;;24.13;28.25
6464;BME280;3265;42.694;23.282;2023-02-23T12:22:03;94488.69;;;23.84;28.31
6464;BME280;3265;42.694;23.282;2023-02-23T12:24:42;94474.38;;;23.04;28.33
6464;BME280;3265;42.694;23.282;2023-02-23T12:27:13;94483.56;;;22.57;29.36
6464;BME280;3265;42.694;23.282;2023-02-23T12:29:54;94480.66;;;22.04;30.33
6464;BME280;3265;42.694;23.282;2023-02-23T12:32:26;94470.19;;;21.67;31.00
6464;BME280;3265;42.694;23.282;2023-02-23T12:34:57;94463.78;;;21.22;31.70
6464;BME280;3265;42.694;23.282;2023-02-23T12:37:30;94463.66;;;21.14;32.01
6464;BME280;3265;42.694;23.282;2023-02-23T12:40:10;94466.09;;;21.10;32.08
6464;BME280;3265;42.694;23.282;2023-02-23T12:42:46;94467.72;;;21.06;32.17
6464;BME280;3265;42.694;23.282;2023-02-23T12:45:23;94471.91;;;21.07;32.50
6464;BME280;3265;42.694;23.282;2023-02-23T12:47:58;94467.78;;;20.82;32.31
6464;BME280;3265;42.694;23.282;2023-02-23T12:50:31;94465.88;;;20.88;32.52
6464;BME280;3265;42.694;23.282;2023-02-23T12:53:18;94466.56;;;20.93;32.14
6464;BME280;3265;42.694;23.282;2023-02-23T12:55:59;94457.28;;;20.96;32.30
6464;BME280;3265;42.694;23.282;2023-02-23T12:58:37;94461.09;;;21.09;31.85
6464;BME280;3265;42.694;23.282;2023-02-23T13:01:08;94450.56;;;21.04;31.77
6464;BME280;3265;42.694;23.282;2023-02-23T13:03:48;94461.56;;;20.73;31.44
6464;BME280;3265;42.694;23.282;2023-02-23T13:06:26;94450.63;;;20.61;32.67
6464;BME280;3265;42.694;23.282;2023-02-23T13:09:04;94445.88;;;20.63;32.39
6464;BME280;3265;42.694;23.282;2023-02-23T13:11:55;94458.16;;;20.54;32.42
6464;BME280;3265;42.694;23.282;2023-02-23T13:14:32;94455.56;;;20.49;33.20
6464;BME280;3265;42.694;23.282;2023-02-23T13:17:07;94452.16;;;20.01;33.68
6464;BME280;3265;42.694;23.282;2023-02-23T13:19:40;94455.09;;;20.00;34.15
6464;BME280;3265;42.694;23.282;2023-02-23T13:22:25;94445.53;;;20.04;33.83
6464;BME280;3265;42.694;23.282;2023-02-23T13:24:57;94445.75;;;20.07;33.96
6464;BME280;3265;42.694;23.282;2023-02-23T13:27:29;94440.47;;;20.07;34.20
6464;BME280;3265;42.694;23.282;2023-02-23T13:30:00;94432.97;;;19.96;34.39
6464;BME280;3265;42.694;23.282;2023-02-23T13:32:30;94439.53;;;19.98;34.85
6464;BME280;3265;42.694;23.282;2023-02-23T13:34:59;94440.41;;;19.89;35.22
6464;BME280;3265;42.694;23.282;2023-02-23T13:37:32;94438.63;;;19.84;35.46
6464;BME280;3265;42.694;23.282;2023-02-23T13:40:13;94435.50;;;19.82;34.94
6464;BME280;3265;42.694;23.282;2023-02-23T13:42:51;94437.66;;;19.75;35.52
6464;BME280;3265;42.694;23.282;2023-02-23T13:45:29;94437.22;;;19.68;35.37
6464;BME280;3265;42.694;23.282;2023-02-23T13:48:01;94447.63;;;19.54;35.42
6464;BME280;3265;42.694;23.282;2023-02-23T13:50:39;94447.59;;;19.59;35.54
6464;BME280;3265;42.694;23.282;2023-02-23T13:53:27;94443.47;;;19.48;35.39
6464;BME280;3265;42.694;23.282;2023-02-23T13:55:58;94443.13;;;19.26;35.63
6464;BME280;3265;42.694;23.282;2023-02-23T13:58:29;94447.34;;;19.22;36.15
6464;BME280;3265;42.694;23.282;2023-02-23T14:01:09;94440.56;;;19.16;35.81
6464;BME280;3265;42.694;23.282;2023-02-23T14:03:42;94441.59;;;18.86;36.36
6464;BME280;3265;42.694;23.282;2023-02-23T14:06:13;94437.22;;;18.72;36.74
6464;BME280;3265;42.694;23.282;2023-02-23T14:08:42;94447.44;;;18.78;37.02
6464;BME280;3265;42.694;23.282;2023-02-23T14:11:10;94439.28;;;18.75;37.28
6464;BME280;3265;42.694;23.282;2023-02-23T14:14:00;94445.06;;;18.77;37.27
6464;BME280;3265;42.694;23.282;2023-02-23T14:16:27;94436.44;;;18.66;37.26